ラルナカ の空港の天気 - METARとTAF

ラルナカ国際空港 ( LCLK / LCA ) - キプロス ラルナカ
飛行場実況気象(Metar)
観測時間09/27 00:30 EEST (09/26 21:30 UTC)
風向・風速西南西 1m/s
視程10km以上
天気現象
なし
気温24℃
湿度78%
気圧1012hPa
METARLCLK 262130Z 25002KT CAVOK 24/20 Q1012 NOSIG
過去の天気等 Google飛行場航空写真 Wunderground天気予報

過去48時間のMETAR

飛行場予報(TAF)
発表時間: 9/26 20:30 EEST (9/26 17:30 UTC)
予報対象時間: 26日21時 EEST ~ 27日21時 EEST
風向・風速北西 3m/s
視程10km以上
少しの雲 雲底高度 610m
27日11時 EEST ~ 27日13時 EEST に徐々に
風向・風速南 6m/s
27日18時 EEST ~ 27日21時 EEST に徐々に
風向・風速西北西 4m/s
TAF LCLK 261730Z 2618/2718 32006KT 9999 FEW020
BECMG 2708/2710 19012KT
BECMG 2715/2718 30007KT